Lewistown, MT

1:00 AM MST on January 23, 2017 (GMT -0700)
3rd Ave S Lewistown | | Change Station
Active Advisory: Freezing Fog Advisory

Elev 3927 ft 47.06 °N, 109.42 °W | Updated 0 second ago

Overcast
Overcast
20.9 °F
Feels Like 21 °F
N
0.0
Wind Variable Wind from ENE
Gusts 0.0 mph

Today
High -- | Low -- °F
--% Chance of Precip.
Yesterday
High -- | Low -- °F
Precip. -- in
Pressure 29.72 in
Visibility 1.0 miles
Clouds Mostly Cloudy 100 ft
Overcast 900 ft
Windchill 21 °F
Dew Point 18 °F
Humidity 88%
Rainfall 0.00 in
Snow Depth Not available.
7:52 AM 5:07 PM
Waning Crescent, 20% visible
METAR KLWT 230754Z AUTO 00000KT 1SM BR BKN001 OVC009 M07/M07 A2964 RMK AO2 SLP064 T10671072
Pressure 29.72 in
Visibility 1.0 miles
Clouds Mostly Cloudy 100 ft
Overcast 900 ft
Windchill 21 °F
Dew Point 18 °F
Humidity 88%
Rainfall 0.00 in
Snow Depth Not available.
7:52 AM 5:07 PM
Waning Crescent, 20% visible
METAR KLWT 230754Z AUTO 00000KT 1SM BR BKN001 OVC009 M07/M07 A2964 RMK AO2 SLP064 T10671072

Get Your Daily Forecast Email!

Thanks for signing up!

Be on the lookout for a verification email in your inbox.

You'll start receiving the daily forecast at 8 AM.

×

10-Day Weather Forecast

Almanac

Astronomy

Jan. 23, 2017 Rise Set
Actual Time
Civil Twilight
Nautical Twilight
Astronomical Twilight
Moon
Length of Visible Light
Length of Day
Tomorrow will be .
, % of the Moon is Illuminated

Today's Extremes

State Highs State Lows

Community

WunderPhotos

Upload Photos

1,962,540 photos uploaded!

WunderBlog® & News

Nearby

Air Quality

  Air Quality AQ Index Pollutant
Not available.

Snow Depth

Station Depth Elevation

Earthquake Activity

City Distance Mag. Time & Date
Minimum magnitude displayed is 2.5.

Coastal Water Temperatures

Place Temperature

Stations

Nearby Weather Stations

Station Location Temp. Windchill Dew Point Humidity Wind Precip. Elev Updated Type
                   

Watches & Warnings

Freezing Fog Advisory
Issued: 8:40 PM MST Jan. 22, 2017 – National Weather Service

... Freezing fog advisory in effect until 11 am MST Monday...

The National Weather Service in Great Falls has issued a freezing
fog advisory... which is in effect until 11 am MST Monday.

* Visibilities... one quarter mile or less at times.

* Timing... freezing fog will linger over much of north central
Montana into Monday morning... but it should start to lift during
the later morning and early afternoon hours.

* Impacts... ice may be deposited on bridges and roadways... so be
alert for dangerously slippery roads. Reduced visibility will
also make driving difficult... especially during the morning
commute. Make sure to leave extra time to reach your
destination. Also... slow down... use your headlights... and
leave plenty of distance ahead of you.

Precautionary/preparedness actions...

For specific Road and travel conditions in Montana... dial 5 1 1 .